createdAt,value
2019-03-08T00:01:58.136Z,1.50
2019-03-08T00:04:26.177Z,1.73
2019-03-08T00:06:54.253Z,1.90
2019-03-08T00:09:22.305Z,1.80
2019-03-08T00:11:50.395Z,1.83
2019-03-08T00:14:18.434Z,1.93
2019-03-08T00:16:46.602Z,2.37
2019-03-08T00:19:14.673Z,1.30
2019-03-08T00:21:42.742Z,1.87
2019-03-08T00:24:10.885Z,1.73
2019-03-08T00:26:38.989Z,1.80
2019-03-08T00:29:07.024Z,1.77
2019-03-08T00:31:35.277Z,2.17
2019-03-08T00:34:03.328Z,2.07
2019-03-08T00:36:31.387Z,1.90
2019-03-08T00:38:59.458Z,1.70
2019-03-08T00:41:27.593Z,1.67
2019-03-08T00:43:55.614Z,2.10
2019-03-08T00:46:23.679Z,2.30
2019-03-08T00:48:51.740Z,2.27
2019-03-08T00:51:19.793Z,2.50
2019-03-08T00:53:47.843Z,2.10
2019-03-08T00:56:15.919Z,2.20
2019-03-08T00:58:43.969Z,2.40
2019-03-08T01:01:12.034Z,2.70
2019-03-08T01:03:40.079Z,2.37
2019-03-08T01:06:08.139Z,2.93
2019-03-08T01:08:36.329Z,3.10
2019-03-08T01:11:04.543Z,3.27
2019-03-08T01:13:32.633Z,2.83
2019-03-08T01:16:00.779Z,2.63
2019-03-08T01:18:29.057Z,2.80
2019-03-08T01:20:57.415Z,2.57
2019-03-08T01:23:25.472Z,2.80
2019-03-08T01:25:53.529Z,2.90
2019-03-08T01:28:21.887Z,2.80
2019-03-08T01:30:49.915Z,2.80
2019-03-08T01:33:18.442Z,2.67
2019-03-08T01:35:46.477Z,2.90
2019-03-08T01:38:14.514Z,2.93
2019-03-08T01:40:42.557Z,3.00
2019-03-08T01:43:37.646Z,3.10
2019-03-08T01:46:05.709Z,3.10
2019-03-08T01:48:57.943Z,2.90
2019-03-08T01:51:25.987Z,2.93
2019-03-08T01:53:54.136Z,3.37
2019-03-08T01:56:22.160Z,2.90
2019-03-08T01:58:50.233Z,3.00
2019-03-08T02:01:18.274Z,3.00
2019-03-08T02:03:46.356Z,3.23
2019-03-08T02:06:14.418Z,3.47
2019-03-08T02:08:42.794Z,3.40
2019-03-08T02:11:10.832Z,3.03
2019-03-08T02:13:38.884Z,3.57
2019-03-08T02:16:06.907Z,3.60
2019-03-08T02:18:34.952Z,3.63
2019-03-08T02:21:06.840Z,3.30
2019-03-08T02:23:32.834Z,2.97
2019-03-08T02:26:00.876Z,2.93
2019-03-08T02:28:28.945Z,3.53
2019-03-08T02:30:56.990Z,3.30
2019-03-08T02:33:25.053Z,3.10
2019-03-08T02:35:53.112Z,3.07
2019-03-08T02:38:21.141Z,3.20
2019-03-08T02:40:49.210Z,2.90
2019-03-08T02:43:18.157Z,3.00
2019-03-08T02:45:46.344Z,3.47
2019-03-08T02:48:14.406Z,3.40
2019-03-08T02:50:42.445Z,3.13
2019-03-08T02:53:10.497Z,3.00
2019-03-08T02:55:38.555Z,3.17
2019-03-08T02:58:06.625Z,3.53
2019-03-08T03:00:39.880Z,3.40
2019-03-08T03:03:07.902Z,3.33
2019-03-08T03:05:35.987Z,3.30
2019-03-08T03:08:05.061Z,4.00
2019-03-08T03:10:33.136Z,3.50
2019-03-08T03:13:01.183Z,3.67
2019-03-08T03:15:29.215Z,3.60
2019-03-08T03:17:57.341Z,3.80
2019-03-08T03:20:25.424Z,3.70
2019-03-08T03:22:53.892Z,3.50
2019-03-08T03:25:21.993Z,4.53
2019-03-08T03:27:50.067Z,3.97
2019-03-08T03:30:18.227Z,4.50
2019-03-08T03:32:46.293Z,4.53
2019-03-08T03:35:14.418Z,4.40
2019-03-08T03:37:42.471Z,4.10
2019-03-08T03:40:10.946Z,4.50
2019-03-08T03:42:39.013Z,4.47
2019-03-08T03:45:07.974Z,4.70
2019-03-08T03:47:36.031Z,4.53
2019-03-08T03:50:04.908Z,4.63
2019-03-08T03:52:32.934Z,4.13
2019-03-08T03:55:00.978Z,4.33
2019-03-08T03:57:29.107Z,3.73
2019-03-08T03:59:57.319Z,3.60
2019-03-08T04:02:25.694Z,4.20
2019-03-08T04:04:53.758Z,3.53
2019-03-08T04:07:23.195Z,3.57
2019-03-08T04:09:51.260Z,3.10
2019-03-08T04:12:19.316Z,3.30
2019-03-08T04:14:47.519Z,3.37
2019-03-08T04:17:15.621Z,2.87
2019-03-08T04:19:43.685Z,3.00
2019-03-08T04:22:17.995Z,2.80
2019-03-08T04:24:46.111Z,2.33
2019-03-08T04:27:14.247Z,2.27
2019-03-08T04:29:42.356Z,2.30
2019-03-08T04:32:10.414Z,2.30
2019-03-08T04:37:48.098Z,2.07
2019-03-08T04:40:17.183Z,1.97
2019-03-08T04:42:46.326Z,2.07
2019-03-08T04:45:14.602Z,2.00
2019-03-08T04:47:42.683Z,2.00
2019-03-08T04:50:10.886Z,1.60
2019-03-08T04:52:39.022Z,1.80
2019-03-08T04:55:07.942Z,1.80
2019-03-08T04:57:36.014Z,1.80
2019-03-08T05:00:05.236Z,2.10
2019-03-08T05:02:33.316Z,1.47
2019-03-08T05:05:01.505Z,1.30
2019-03-08T05:07:29.586Z,1.63
2019-03-08T05:09:57.676Z,1.80
2019-03-08T05:12:25.742Z,1.67
2019-03-08T05:14:54.096Z,1.83
2019-03-08T05:17:22.144Z,1.83
2019-03-08T05:19:50.218Z,1.70
2019-03-08T05:22:18.294Z,1.90
2019-03-08T05:24:46.371Z,2.20
2019-03-08T05:27:14.411Z,1.70
2019-03-08T05:29:42.473Z,1.60
2019-03-08T05:32:11.122Z,1.13
2019-03-08T05:34:39.220Z,1.57
2019-03-08T05:37:07.305Z,1.07
2019-03-08T05:39:35.474Z,1.00
2019-03-08T05:42:03.587Z,0.90
2019-03-08T05:44:31.637Z,0.70
2019-03-08T05:46:59.834Z,0.70
2019-03-08T05:49:27.898Z,0.90
2019-03-08T05:51:56.035Z,0.97
2019-03-08T05:54:24.100Z,0.83
2019-03-08T05:56:52.198Z,0.83
2019-03-08T05:59:20.310Z,0.90
2019-03-08T06:01:48.378Z,0.70
2019-03-08T06:04:16.440Z,0.70
2019-03-08T06:06:44.632Z,1.40
2019-03-08T06:09:12.698Z,1.03
2019-03-08T06:11:40.799Z,1.00
2019-03-08T06:14:08.843Z,1.80
2019-03-08T06:16:37.272Z,1.43
2019-03-08T06:19:05.661Z,1.50
2019-03-08T06:21:33.706Z,1.60
2019-03-08T06:24:01.931Z,1.77
2019-03-08T06:26:30.033Z,1.10
2019-03-08T06:28:58.140Z,1.13
2019-03-08T06:31:26.256Z,1.37
2019-03-08T06:33:54.238Z,1.63
2019-03-08T06:36:22.316Z,2.33
2019-03-08T06:38:50.526Z,2.40
2019-03-08T06:41:18.660Z,2.33
2019-03-08T06:43:46.753Z,2.67
2019-03-08T06:49:24.204Z,3.33
2019-03-08T06:51:52.267Z,3.13
2019-03-08T06:54:21.558Z,3.30
2019-03-08T06:56:49.684Z,3.07
2019-03-08T06:59:24.029Z,4.20
2019-03-08T07:01:52.113Z,3.87
2019-03-08T07:04:20.549Z,4.60
2019-03-08T07:06:48.608Z,4.43
2019-03-08T07:09:16.764Z,4.80
2019-03-08T07:11:44.856Z,5.47
2019-03-08T07:14:12.963Z,4.83
2019-03-08T07:16:41.012Z,5.33
2019-03-08T07:19:09.143Z,5.90
2019-03-08T07:21:52.294Z,6.87
2019-03-08T07:24:30.439Z,5.60
2019-03-08T07:27:26.653Z,5.40
2019-03-08T07:30:17.399Z,5.67
2019-03-08T07:33:13.552Z,5.30
2019-03-08T07:35:57.908Z,5.73
2019-03-08T07:38:53.984Z,5.70
2019-03-08T07:41:36.317Z,6.70
2019-03-08T07:44:23.542Z,7.50
2019-03-08T07:47:02.284Z,6.27
2019-03-08T07:49:40.127Z,7.47
2019-03-08T07:52:18.040Z,5.77
2019-03-08T07:55:07.911Z,7.20
2019-03-08T07:58:01.266Z,6.17
2019-03-08T08:00:54.436Z,7.60
2019-03-08T08:03:47.316Z,5.80
2019-03-08T08:06:33.282Z,7.47
2019-03-08T08:09:26.864Z,6.97
2019-03-08T08:12:16.777Z,7.27
2019-03-08T08:14:55.095Z,7.13
2019-03-08T08:17:45.363Z,6.57
2019-03-08T08:20:35.191Z,7.30
2019-03-08T08:23:19.725Z,7.40
2019-03-08T08:26:25.315Z,7.70
2019-03-08T08:29:00.147Z,7.40
2019-03-08T08:31:53.117Z,6.60
2019-03-08T08:34:34.479Z,7.37
2019-03-08T08:37:32.192Z,7.33
2019-03-08T08:40:10.778Z,4.93
2019-03-08T08:42:46.080Z,5.27
2019-03-08T08:45:36.165Z,5.17
2019-03-08T08:48:26.497Z,5.33
2019-03-08T08:51:07.975Z,5.60
2019-03-08T08:54:01.111Z,5.80
2019-03-08T08:56:48.280Z,6.87
2019-03-08T08:59:44.597Z,6.83
2019-03-08T09:02:28.764Z,6.43
2019-03-08T09:05:19.425Z,6.63
2019-03-08T09:08:04.815Z,6.13
2019-03-08T09:10:57.690Z,5.60
2019-03-08T09:13:44.928Z,5.87
2019-03-08T09:16:26.453Z,6.83
2019-03-08T09:19:13.527Z,6.10
2019-03-08T09:21:48.449Z,4.90
2019-03-08T09:24:23.067Z,5.53
2019-03-08T09:27:07.613Z,5.20
2019-03-08T09:30:00.838Z,5.83
2019-03-08T09:32:44.995Z,6.10
2019-03-08T09:35:32.354Z,6.53
2019-03-08T09:38:17.601Z,5.07
2019-03-08T09:41:04.720Z,6.17
2019-03-08T09:43:49.188Z,5.50
2019-03-08T09:46:31.805Z,5.10
2019-03-08T09:49:22.003Z,5.70
2019-03-08T09:52:14.554Z,6.20
2019-03-08T09:54:56.930Z,5.43
2019-03-08T09:57:34.609Z,5.13
2019-03-08T10:00:27.714Z,5.20
2019-03-08T10:03:14.040Z,5.70
2019-03-08T10:06:01.094Z,5.13
2019-03-08T10:08:57.187Z,4.40
2019-03-08T10:11:37.082Z,5.37
2019-03-08T10:14:12.055Z,5.70
2019-03-08T10:16:48.894Z,4.50
2019-03-08T10:19:42.121Z,4.93
2019-03-08T10:22:34.011Z,5.13
2019-03-08T10:25:19.898Z,5.07
2019-03-08T10:27:58.313Z,3.47
2019-03-08T10:30:35.025Z,3.83
2019-03-08T10:33:28.262Z,4.03
2019-03-08T10:36:13.701Z,4.73
2019-03-08T10:38:54.098Z,3.93
2019-03-08T10:41:40.238Z,4.67
2019-03-08T10:44:35.806Z,3.90
2019-03-08T10:47:17.750Z,4.63
2019-03-08T10:49:58.986Z,4.00
2019-03-08T10:52:40.405Z,4.20
2019-03-08T10:55:40.748Z,4.67
2019-03-08T11:01:33.552Z,4.27
2019-03-08T11:04:32.858Z,4.07
2019-03-08T11:07:21.031Z,4.17
2019-03-08T11:10:06.947Z,3.43
2019-03-08T11:12:54.042Z,4.33
2019-03-08T11:15:35.831Z,4.07
2019-03-08T11:18:35.223Z,4.27
2019-03-08T11:21:25.345Z,4.37
2019-03-08T11:24:11.077Z,4.17
2019-03-08T11:27:07.652Z,4.67
2019-03-08T11:29:58.725Z,3.40
2019-03-08T11:32:33.496Z,4.40
2019-03-08T11:35:17.195Z,3.33
2019-03-08T11:38:22.833Z,3.73
2019-03-08T11:41:01.597Z,4.40
2019-03-08T11:43:38.985Z,4.33
2019-03-08T11:46:28.826Z,4.73
2019-03-08T11:49:14.787Z,4.77
2019-03-08T11:52:14.074Z,3.93
2019-03-08T11:55:06.790Z,3.63
2019-03-08T11:57:52.690Z,4.63
2019-03-08T12:00:39.787Z,4.63
2019-03-08T12:03:36.008Z,3.97
2019-03-08T12:06:10.886Z,4.43
2019-03-08T12:08:57.905Z,4.27
2019-03-08T12:11:44.134Z,3.70
2019-03-08T12:14:27.968Z,3.97
2019-03-08T12:17:06.155Z,3.57
2019-03-08T12:19:53.189Z,3.90
2019-03-08T12:22:36.053Z,5.10
2019-03-08T12:25:26.021Z,5.37
2019-03-08T12:28:12.025Z,4.60
2019-03-08T12:30:49.939Z,5.00
2019-03-08T12:33:46.124Z,5.53
2019-03-08T12:36:34.142Z,5.53
2019-03-08T12:39:14.200Z,4.80
2019-03-08T12:41:55.990Z,5.10
2019-03-08T12:44:36.892Z,5.03
2019-03-08T12:47:33.221Z,3.93
2019-03-08T12:50:18.896Z,4.07
2019-03-08T12:53:04.938Z,3.87
2019-03-08T12:55:38.100Z,4.40
2019-03-08T12:58:23.820Z,3.73
2019-03-08T13:01:01.383Z,3.87
2019-03-08T13:04:00.827Z,3.80
2019-03-08T13:12:52.543Z,3.57
2019-03-08T13:15:20.771Z,4.50
2019-03-08T13:17:48.856Z,4.37
2019-03-08T13:20:17.234Z,4.73
2019-03-08T13:22:45.451Z,4.03
2019-03-08T13:25:13.676Z,4.50
2019-03-08T13:27:41.815Z,2.93
2019-03-08T13:30:11.797Z,2.90
2019-03-08T13:32:39.898Z,3.57
2019-03-08T13:35:08.875Z,2.37
2019-03-08T13:37:38.561Z,2.90
2019-03-08T13:40:06.755Z,3.30
2019-03-08T13:42:34.891Z,2.63
2019-03-08T13:45:03.041Z,2.93
2019-03-08T13:47:31.108Z,2.47
2019-03-08T13:49:59.256Z,3.30
2019-03-08T13:52:27.291Z,5.73
2019-03-08T13:54:55.392Z,2.70
2019-03-08T13:57:23.544Z,2.97
2019-03-08T13:59:51.668Z,4.30
2019-03-08T14:02:19.732Z,3.60
2019-03-08T14:04:47.826Z,4.50
2019-03-08T14:07:16.117Z,3.90
2019-03-08T14:09:44.375Z,4.17
2019-03-08T14:12:12.689Z,4.47
2019-03-08T14:14:40.745Z,3.43
2019-03-08T14:17:08.850Z,3.80
2019-03-08T14:19:36.928Z,3.57
2019-03-08T14:22:05.388Z,4.27
2019-03-08T14:24:33.479Z,3.37
2019-03-08T14:27:01.859Z,4.47
2019-03-08T14:29:32.255Z,4.13
2019-03-08T14:32:06.862Z,4.07
2019-03-08T14:34:34.980Z,7.13
2019-03-08T14:37:03.035Z,3.73
2019-03-08T14:39:32.247Z,4.80
2019-03-08T14:42:17.940Z,3.07
2019-03-08T14:45:10.089Z,3.40
2019-03-08T14:47:43.817Z,3.53
2019-03-08T14:53:34.394Z,2.97
2019-03-08T14:56:02.646Z,3.33
2019-03-08T14:58:32.605Z,3.87
2019-03-08T15:01:02.099Z,4.27
2019-03-08T15:03:31.749Z,3.37
2019-03-08T15:06:00.020Z,4.00
2019-03-08T15:08:28.211Z,3.00
2019-03-08T15:10:56.439Z,4.70
2019-03-08T15:13:25.802Z,4.70
2019-03-08T15:19:04.041Z,3.40
2019-03-08T15:22:06.475Z,3.63
2019-03-08T15:24:38.343Z,4.10
2019-03-08T15:27:04.954Z,4.17
2019-03-08T15:29:33.503Z,4.30
2019-03-08T15:32:01.630Z,5.73
2019-03-08T15:34:29.798Z,5.03
2019-03-08T15:36:57.913Z,5.03
2019-03-08T15:39:26.024Z,4.27
2019-03-08T15:41:54.137Z,3.63
2019-03-08T15:44:24.487Z,5.80
2019-03-08T15:46:55.794Z,4.13
2019-03-08T15:49:58.642Z,5.13
2019-03-08T15:52:26.145Z,4.27
2019-03-08T15:54:54.307Z,3.70
2019-03-08T15:57:22.418Z,3.40
2019-03-08T15:59:50.491Z,4.17
2019-03-08T16:02:18.701Z,3.63
2019-03-08T16:04:50.049Z,4.43
2019-03-08T16:07:18.959Z,3.43
2019-03-08T16:09:47.787Z,2.33
2019-03-08T16:12:17.868Z,3.30
2019-03-08T16:14:47.610Z,3.27
2019-03-08T16:17:15.906Z,3.20
2019-03-08T16:19:44.086Z,3.33
2019-03-08T16:22:12.139Z,3.23
2019-03-08T16:24:40.239Z,3.23
2019-03-08T16:27:08.377Z,2.77
2019-03-08T16:29:36.474Z,3.13
2019-03-08T16:32:19.592Z,4.20
2019-03-08T16:34:48.981Z,3.03
2019-03-08T16:37:35.580Z,3.67
2019-03-08T16:40:20.846Z,4.10
2019-03-08T16:42:58.128Z,3.33
2019-03-08T16:45:50.556Z,3.57
2019-03-08T16:48:25.565Z,4.47
2019-03-08T16:53:45.371Z,4.70
2019-03-08T16:56:33.313Z,4.20
2019-03-08T16:59:35.352Z,3.67
2019-03-08T17:02:15.732Z,3.33
2019-03-08T17:05:14.795Z,12.67
2019-03-08T17:08:03.786Z,4.27
2019-03-08T17:10:37.127Z,2.90
2019-03-08T17:13:14.911Z,3.20
2019-03-08T17:16:11.296Z,4.00
2019-03-08T17:19:11.857Z,3.53
2019-03-08T17:21:46.978Z,4.97
2019-03-08T17:24:31.572Z,4.50
2019-03-08T17:27:21.694Z,2.90
2019-03-08T17:29:56.760Z,4.77
2019-03-08T17:32:43.942Z,5.70
2019-03-08T17:35:25.673Z,5.20
2019-03-08T17:38:17.148Z,4.27
2019-03-08T17:41:11.423Z,5.13
2019-03-08T17:43:59.100Z,5.43
2019-03-08T17:46:45.124Z,4.37
2019-03-08T17:49:40.430Z,4.33
2019-03-08T17:52:26.198Z,4.70
2019-03-08T17:55:12.456Z,4.20
2019-03-08T17:58:09.149Z,5.27
2019-03-08T18:00:55.017Z,5.10
2019-03-08T18:03:28.534Z,5.63
2019-03-08T18:06:20.216Z,6.97
2019-03-08T18:09:16.117Z,5.10
2019-03-08T18:12:00.840Z,4.20
2019-03-08T18:14:56.354Z,5.23
2019-03-08T18:17:46.500Z,5.57
2019-03-08T18:20:48.854Z,3.57
2019-03-08T18:23:35.970Z,4.63
2019-03-08T18:26:14.864Z,3.67
2019-03-08T18:29:04.980Z,4.37
2019-03-08T18:31:51.388Z,6.57
2019-03-08T18:34:41.310Z,5.20
2019-03-08T18:37:18.963Z,12.43
2019-03-08T18:40:03.912Z,5.93
2019-03-08T18:43:06.348Z,4.93
2019-03-08T18:45:52.300Z,10.90
2019-03-08T18:48:40.732Z,5.23
2019-03-08T18:51:26.731Z,5.43
2019-03-08T18:54:26.082Z,14.43
2019-03-08T18:57:17.398Z,6.97
2019-03-08T19:00:12.599Z,4.47
2019-03-08T19:02:56.608Z,4.53
2019-03-08T19:05:43.762Z,3.77
2019-03-08T19:08:27.136Z,4.47
2019-03-08T19:11:12.527Z,4.27
2019-03-08T19:14:02.708Z,4.33
2019-03-08T19:16:55.237Z,4.27
2019-03-08T19:19:29.905Z,4.23
2019-03-08T19:22:25.907Z,4.17
2019-03-08T19:25:24.567Z,3.60
2019-03-08T19:28:14.644Z,3.57
2019-03-08T19:31:04.541Z,6.97
2019-03-08T19:33:58.821Z,9.83
2019-03-08T19:36:43.985Z,9.27
2019-03-08T19:39:24.508Z,10.30
2019-03-08T19:42:10.372Z,6.90
2019-03-08T19:44:59.191Z,5.33
2019-03-08T19:48:12.853Z,7.97
2019-03-08T19:50:55.217Z,6.87
2019-03-08T19:53:48.618Z,7.00
2019-03-08T19:56:29.278Z,7.00
2019-03-08T19:59:09.636Z,6.33
2019-03-08T20:01:59.582Z,5.13
2019-03-08T20:04:46.645Z,5.17
2019-03-08T20:07:45.740Z,4.33
2019-03-08T20:10:38.870Z,4.63
2019-03-08T20:13:25.878Z,3.93
2019-03-08T20:16:19.124Z,5.10
2019-03-08T20:18:56.095Z,5.50
2019-03-08T20:21:43.229Z,4.87
2019-03-08T20:24:30.007Z,4.83
2019-03-08T20:27:18.418Z,4.97
2019-03-08T20:30:08.315Z,4.77
2019-03-08T20:32:56.939Z,4.37
2019-03-08T20:35:35.792Z,4.33
2019-03-08T20:38:28.969Z,4.37
2019-03-08T20:41:16.395Z,4.40
2019-03-08T20:44:06.580Z,4.17
2019-03-08T20:46:44.857Z,3.73
2019-03-08T20:49:13.144Z,4.20
2019-03-08T20:51:41.295Z,4.27
2019-03-08T20:54:09.473Z,4.03
2019-03-08T20:56:37.598Z,4.53
2019-03-08T20:59:05.954Z,4.33
2019-03-08T21:01:35.429Z,4.17
2019-03-08T21:04:03.670Z,4.37
2019-03-08T21:06:31.803Z,4.33
2019-03-08T21:09:00.190Z,3.93
2019-03-08T21:14:49.942Z,4.17
2019-03-08T21:17:18.347Z,4.20
2019-03-08T21:19:46.639Z,3.53
2019-03-08T21:22:14.905Z,4.33
2019-03-08T21:24:43.153Z,4.70
2019-03-08T21:27:11.319Z,4.23
2019-03-08T21:29:39.383Z,4.03
2019-03-08T21:32:07.585Z,4.20
2019-03-08T21:34:35.786Z,4.37
2019-03-08T21:37:03.869Z,4.90
2019-03-08T21:39:32.008Z,5.17
2019-03-08T21:42:00.186Z,4.53
2019-03-08T21:44:28.188Z,4.10
2019-03-08T21:46:56.268Z,3.93
2019-03-08T21:49:24.358Z,3.47
2019-03-08T21:51:52.506Z,3.80
2019-03-08T21:54:20.584Z,5.37
2019-03-08T21:56:48.680Z,4.20
2019-03-08T21:59:17.058Z,4.67
2019-03-08T22:01:45.137Z,5.77
2019-03-08T22:04:22.932Z,5.70
2019-03-08T22:06:51.029Z,5.20
2019-03-08T22:09:44.283Z,8.87
2019-03-08T22:12:12.407Z,9.30
2019-03-08T22:14:40.442Z,9.83
2019-03-08T22:17:08.535Z,10.60
2019-03-08T22:19:36.655Z,6.63
2019-03-08T22:22:04.775Z,6.00
2019-03-08T22:24:32.863Z,9.53
2019-03-08T22:27:00.946Z,7.00
2019-03-08T22:29:29.027Z,7.67
2019-03-08T22:31:57.106Z,7.47
2019-03-08T22:34:25.518Z,6.90
2019-03-08T22:36:53.547Z,6.37
2019-03-08T22:39:21.627Z,9.20
2019-03-08T22:41:49.718Z,12.47
2019-03-08T22:44:17.827Z,10.10
2019-03-08T22:46:46.230Z,7.73
2019-03-08T22:49:14.960Z,7.67
2019-03-08T22:51:43.052Z,6.10
2019-03-08T22:54:11.126Z,6.50
2019-03-08T22:56:39.202Z,4.73
2019-03-08T22:59:07.279Z,5.10
2019-03-08T23:01:49.940Z,4.87
2019-03-08T23:04:18.023Z,4.37
2019-03-08T23:06:46.088Z,5.63
2019-03-08T23:09:14.901Z,4.60
2019-03-08T23:11:42.958Z,6.03
2019-03-08T23:14:11.330Z,7.13
2019-03-08T23:16:39.403Z,4.43
2019-03-08T23:19:07.509Z,4.20
2019-03-08T23:21:35.585Z,4.03
2019-03-08T23:24:03.655Z,4.00
2019-03-08T23:26:37.807Z,3.33
2019-03-08T23:29:13.100Z,5.27
2019-03-08T23:31:53.568Z,4.40
2019-03-08T23:34:21.712Z,3.97
2019-03-08T23:36:50.026Z,4.60
2019-03-08T23:39:18.124Z,4.40
2019-03-08T23:41:46.150Z,4.43
2019-03-08T23:44:14.238Z,4.83
2019-03-08T23:46:42.342Z,4.67
2019-03-08T23:49:10.409Z,4.40
2019-03-08T23:51:38.485Z,5.37
2019-03-08T23:54:06.567Z,5.80
2019-03-08T23:56:34.611Z,6.23
2019-03-08T23:59:02.704Z,6.27
